Terminal Aerodrome Forecast
Issued by NWS

Home | Current Version | Previous Version | Text Only | Print | Product List | Glossary On
Versions: 1 2 3 4 5 6 7 8 9 10 11 12
000
FTUS45 KRIW 311727
TAFCOD
TAF
KCOD 311727Z 3118/0118 15007KT P6SM FEW200
     FM312000 07008KT P6SM SCT100
     FM010500 24006KT P6SM FEW150
     FM011400 VRB06KT P6SM SKC
      AMD LTD TO CLD VIS AND WIND=

USA.gov is the U.S. government's official web portal to all federal, state and local government web resources and services.